6°C Temp
3°C Dewpoint
81% Humidity
Temperature
13 KM/H
8 MPH
7 KTS
10°
Due North

Wind Speed
Partly Cloudy
Conditions
Pressure 1024.92 (hPa) - 30.27 (in)
Visibility 6.2 (mi) - 10.0 (km)

Current Conditions
LEPA
Location 15(km)
Metar :LEPA 292030Z 01007KT 9999 FEW025 06/03 Q1025 NOSIG
Sun 29th January 21:30 pm

Airport
  Metar Aviation API Data Provided by https://www.checkwx.com/ PHP scripts by weather34.com ©2023